Time;durP1;ratioP1;P1;durP2;ratioP2;P2;SDS_P1;SDS_P2;PMS_P1;PMS_P2;Temp;Humidity;BMP_temperature;BMP_pressure;BME280_temperature;BME280_humidity;BME280_pressure;Samples;Min_cycle;Max_cycle;Signal;HPM_P1;HPM_P2
2022/07/06 00:02:15;;;;;;;0.00;0.00;;;13.30;99.90;;;;;;5100907;27;20054;-81
2022/07/06 00:04:40;;;;;;;0.00;0.00;;;13.30;99.90;;;;;;5100749;27;20039;-82
2022/07/06 00:07:06;;;;;;;0.00;0.00;;;13.30;99.90;;;;;;5117376;27;20054;-81
2022/07/06 00:09:33;;;;;;;0.00;0.00;;;13.10;99.90;;;;;;5117275;27;20047;-81
2022/07/06 00:11:59;;;;;;;0.00;0.00;;;13.10;99.90;;;;;;5134805;27;20126;-81
2022/07/06 00:14:25;;;;;;;0.17;0.15;;;13.00;99.90;;;;;;5117348;27;20192;-81
2022/07/06 00:16:50;;;;;;;0.00;0.00;;;13.00;99.90;;;;;;5134313;27;20054;-82
2022/07/06 00:19:16;;;;;;;5.05;0.65;;;13.00;99.90;;;;;;5117411;27;20053;-81
2022/07/06 00:21:44;;;;;;;0.00;0.00;;;13.00;99.90;;;;;;5100625;27;20390;-81
2022/07/06 00:24:10;;;;;;;0.00;0.00;;;13.00;99.90;;;;;;5117572;27;20043;-81
2022/07/06 00:26:36;;;;;;;0.00;0.00;;;13.00;99.90;;;;;;5100238;27;20073;-81
2022/07/06 00:29:04;;;;;;;0.00;0.00;;;12.90;99.90;;;;;;5116841;27;20039;-81
2022/07/06 00:31:29;;;;;;;0.00;0.00;;;12.90;99.90;;;;;;5116623;27;20086;-81
2022/07/06 00:33:55;;;;;;;0.00;0.00;;;12.80;99.90;;;;;;5099763;27;20090;-81
2022/07/06 00:36:21;;;;;;;0.00;0.00;;;12.80;99.90;;;;;;5116087;27;20035;-81
2022/07/06 00:38:46;;;;;;;0.00;0.00;;;12.70;99.90;;;;;;5117083;27;20051;-81
2022/07/06 00:41:13;;;;;;;0.00;0.00;;;12.70;99.90;;;;;;5099979;27;20050;-81
2022/07/06 00:43:52;;;;;;;0.00;0.00;;;12.70;99.90;;;;;;5116974;27;20047;-81
2022/07/06 00:46:18;;;;;;;0.00;0.00;;;12.70;99.90;;;;;;5116874;27;20096;-81
2022/07/06 00:48:44;;;;;;;0.00;0.00;;;12.80;99.90;;;;;;5099663;27;20035;-81
2022/07/06 00:51:11;;;;;;;0.00;0.00;;;12.80;99.90;;;;;;5100022;27;20046;-81
2022/07/06 00:53:38;;;;;;;0.00;0.00;;;12.90;99.90;;;;;;5133742;27;20525;-81
2022/07/06 00:56:04;;;;;;;0.00;0.00;;;12.90;99.90;;;;;;5099137;27;20062;-81
2022/07/06 00:58:30;;;;;;;0.08;0.08;;;13.00;99.90;;;;;;5099629;28;20055;-81
2022/07/06 01:00:55;;;;;;;0.00;0.00;;;13.00;99.90;;;;;;5099850;28;20478;-81
2022/07/06 01:03:21;;;;;;;0.00;0.00;;;13.00;99.90;;;;;;5116740;28;20082;-81
2022/07/06 01:05:46;;;;;;;0.00;0.00;;;13.00;99.90;;;;;;5099629;28;20046;-81
2022/07/06 01:08:12;;;;;;;0.00;0.00;;;13.10;99.90;;;;;;5133590;28;20096;-81
2022/07/06 01:10:38;;;;;;;0.00;0.00;;;13.10;99.90;;;;;;5098718;28;20124;-81
2022/07/06 01:13:04;;;;;;;0.00;0.00;;;13.10;99.90;;;;;;5116641;28;20043;-81
2022/07/06 01:15:30;;;;;;;1.55;0.35;;;13.10;99.90;;;;;;5099517;28;20043;-81
2022/07/06 01:17:56;;;;;;;0.00;0.00;;;13.10;99.90;;;;;;5099724;28;20103;-81
2022/07/06 01:20:24;;;;;;;0.00;0.00;;;13.20;99.90;;;;;;5116473;28;20047;-81
2022/07/06 01:22:51;;;;;;;0.00;0.00;;;13.10;99.90;;;;;;5133578;28;20054;-81
2022/07/06 01:25:18;;;;;;;0.00;0.00;;;13.20;99.90;;;;;;5116005;28;20605;-81
2022/07/06 01:27:44;;;;;;;0.00;0.00;;;13.20;99.90;;;;;;5116249;28;20096;-80
2022/07/06 01:30:12;;;;;;;0.00;0.00;;;13.20;99.90;;;;;;5116127;28;20122;-81
2022/07/06 01:32:38;;;;;;;0.00;0.00;;;13.20;99.90;;;;;;5116551;28;20044;-81
2022/07/06 01:35:06;;;;;;;0.00;0.00;;;13.20;99.90;;;;;;5116225;28;20402;-81
2022/07/06 01:37:31;;;;;;;0.00;0.00;;;13.20;99.90;;;;;;5099301;28;20054;-81
2022/07/06 01:40:02;;;;;;;0.22;0.10;;;13.20;99.90;;;;;;5098854;28;20395;-81
2022/07/06 01:42:28;;;;;;;0.00;0.00;;;13.20;99.90;;;;;;5116474;28;20045;-81
2022/07/06 01:44:54;;;;;;;0.00;0.00;;;13.20;99.90;;;;;;5099211;28;20055;-81
2022/07/06 01:47:20;;;;;;;0.00;0.00;;;13.20;99.90;;;;;;5117777;27;20434;-81
2022/07/06 01:49:46;;;;;;;0.00;0.00;;;13.20;99.90;;;;;;5120111;27;20104;-81
2022/07/06 01:52:12;;;;;;;0.00;0.00;;;13.20;99.90;;;;;;5119741;27;20043;-81
2022/07/06 01:54:40;;;;;;;0.80;0.35;;;13.30;99.90;;;;;;5120131;27;20053;-81
2022/07/06 01:57:06;;;;;;;0.00;0.00;;;13.30;99.90;;;;;;5120208;27;20045;-81
2022/07/06 01:59:31;;;;;;;0.00;0.00;;;13.30;99.90;;;;;;5119609;27;20047;-81
2022/07/06 02:01:57;;;;;;;0.00;0.00;;;13.30;99.90;;;;;;5103065;27;20428;-81
2022/07/06 02:04:23;;;;;;;0.00;0.00;;;13.40;99.90;;;;;;5119828;27;20387;-81
2022/07/06 02:06:48;;;;;;;0.00;0.00;;;13.40;99.90;;;;;;5103370;27;20063;-81
2022/07/06 02:09:15;;;;;;;0.00;0.00;;;13.40;99.90;;;;;;5102322;27;20056;-81
2022/07/06 02:11:41;;;;;;;0.00;0.00;;;13.40;99.90;;;;;;5119785;27;20371;-81
2022/07/06 02:14:07;;;;;;;0.00;0.00;;;13.30;99.90;;;;;;5102429;27;20062;-81
2022/07/06 02:16:32;;;;;;;0.00;0.00;;;13.30;99.90;;;;;;5119945;27;20072;-81
2022/07/06 02:18:58;;;;;;;0.00;0.00;;;13.40;99.90;;;;;;5102094;27;20169;-81
2022/07/06 02:21:23;;;;;;;0.00;0.00;;;13.40;99.90;;;;;;5102115;27;20051;-81
2022/07/06 02:23:49;;;;;;;0.00;0.00;;;13.40;99.90;;;;;;5102839;27;20047;-81
2022/07/06 02:26:15;;;;;;;0.00;0.00;;;13.40;99.90;;;;;;5136293;27;20047;-81
2022/07/06 02:28:40;;;;;;;0.00;0.00;;;13.40;99.90;;;;;;5119637;27;20043;-80
2022/07/06 02:31:06;;;;;;;0.00;0.00;;;13.40;99.90;;;;;;5102472;27;20039;-81
2022/07/06 02:33:32;;;;;;;0.00;0.00;;;13.30;99.90;;;;;;5119257;27;20480;-81
2022/07/06 02:35:57;;;;;;;0.10;0.10;;;13.30;99.90;;;;;;5136387;27;20099;-81
2022/07/06 02:38:23;;;;;;;0.00;0.00;;;13.30;99.90;;;;;;5119372;27;20069;-81
2022/07/06 02:40:51;;;;;;;0.00;0.00;;;13.30;99.90;;;;;;5119299;27;20058;-81
2022/07/06 02:43:19;;;;;;;0.00;0.00;;;13.30;99.90;;;;;;5102260;27;20098;-81
2022/07/06 02:45:44;;;;;;;0.00;0.00;;;13.40;99.90;;;;;;5119446;27;20043;-81
2022/07/06 02:48:10;;;;;;;0.00;0.00;;;13.40;99.90;;;;;;5119227;27;20157;-81
2022/07/06 02:50:36;;;;;;;0.00;0.00;;;13.40;99.90;;;;;;5101646;27;20475;-81
2022/07/06 02:53:01;;;;;;;0.00;0.00;;;13.40;99.90;;;;;;5135583;27;20039;-81
2022/07/06 02:55:27;;;;;;;0.00;0.00;;;13.40;99.90;;;;;;5101563;27;20066;-81
2022/07/06 02:57:53;;;;;;;0.00;0.00;;;13.50;99.90;;;;;;5102046;27;20043;-81
2022/07/06 03:00:19;;;;;;;0.00;0.00;;;13.40;99.90;;;;;;5101301;27;20068;-81
2022/07/06 03:02:44;;;;;;;0.00;0.00;;;13.40;99.90;;;;;;5118923;27;20055;-81
2022/07/06 03:05:10;;;;;;;0.00;0.00;;;13.40;99.90;;;;;;5135979;27;20031;-81
2022/07/06 03:07:36;;;;;;;0.00;0.00;;;13.40;99.90;;;;;;5097383;28;20089;-81
2022/07/06 03:10:01;;;;;;;0.00;0.00;;;13.40;99.90;;;;;;5115601;28;20043;-81
2022/07/06 03:12:27;;;;;;;0.00;0.00;;;13.40;99.90;;;;;;5097991;28;20513;-81
2022/07/06 03:14:53;;;;;;;0.03;0.03;;;13.40;99.90;;;;;;5115087;28;20050;-81
2022/07/06 03:17:19;;;;;;;0.00;0.00;;;13.30;99.90;;;;;;5097970;28;20142;-81
2022/07/06 03:20:06;;;;;;;0.00;0.00;;;13.30;99.90;;;;;;5114925;28;20047;-81
2022/07/06 03:22:32;;;;;;;0.00;0.00;;;13.30;99.90;;;;;;5132408;27;20185;-81
2022/07/06 03:24:58;;;;;;;0.00;0.00;;;13.30;99.90;;;;;;5097896;28;20463;-81
2022/07/06 03:27:27;;;;;;;0.00;0.00;;;13.30;99.90;;;;;;5114877;28;20124;-81
2022/07/06 03:29:53;;;;;;;0.00;0.00;;;13.30;99.90;;;;;;5114639;28;20475;-81
2022/07/06 03:32:19;;;;;;;0.00;0.00;;;13.30;99.90;;;;;;5114816;28;20075;-81
2022/07/06 03:34:44;;;;;;;0.00;0.00;;;13.30;99.90;;;;;;5097144;28;20060;-81
2022/07/06 03:37:13;;;;;;;0.00;0.00;;;13.30;99.90;;;;;;5114573;28;20065;-81
2022/07/06 03:39:39;;;;;;;0.10;0.10;;;13.30;99.90;;;;;;5114832;28;20483;-81
2022/07/06 03:42:06;;;;;;;0.28;0.28;;;13.30;99.90;;;;;;5131854;27;20044;-81
2022/07/06 03:44:31;;;;;;;0.00;0.00;;;13.30;99.90;;;;;;5097621;28;20058;-81
2022/07/06 03:46:57;;;;;;;0.00;0.00;;;13.30;99.90;;;;;;5131620;27;20047;-81
2022/07/06 03:49:26;;;;;;;0.00;0.00;;;13.30;99.90;;;;;;5113569;28;20511;-81
2022/07/06 03:51:52;;;;;;;0.00;0.00;;;13.30;99.90;;;;;;5097521;28;20554;-81
2022/07/06 03:54:17;;;;;;;0.20;0.00;;;13.30;99.90;;;;;;5131371;27;20086;-81
2022/07/06 03:56:43;;;;;;;0.00;0.00;;;13.40;99.90;;;;;;5097308;28;20052;-80
2022/07/06 03:59:09;;;;;;;0.00;0.00;;;13.30;99.90;;;;;;5131260;27;20052;-81
2022/07/06 04:01:34;;;;;;;0.00;0.00;;;13.30;99.90;;;;;;5114359;28;20052;-81
2022/07/06 04:04:00;;;;;;;0.00;0.00;;;13.30;99.90;;;;;;5114175;28;20046;-80
2022/07/06 04:06:35;;;;;;;0.00;0.00;;;13.30;99.90;;;;;;5115288;28;20047;-81
2022/07/06 04:09:04;;;;;;;0.00;0.00;;;13.40;99.90;;;;;;5114477;27;20043;-80
2022/07/06 04:11:31;;;;;;;0.00;0.00;;;13.40;99.90;;;;;;5117445;27;20482;-81
2022/07/06 04:13:56;;;;;;;0.08;0.08;;;13.40;99.90;;;;;;5117367;27;20129;-81
2022/07/06 04:16:22;;;;;;;0.00;0.00;;;13.40;99.90;;;;;;5099801;27;20094;-81
2022/07/06 04:18:49;;;;;;;0.00;0.00;;;13.40;99.90;;;;;;5117723;27;20101;-80
2022/07/06 04:21:15;;;;;;;0.08;0.08;;;13.40;99.90;;;;;;5117472;27;20482;-81
2022/07/06 04:23:41;;;;;;;0.00;0.00;;;13.50;99.90;;;;;;5117205;27;20046;-80
2022/07/06 04:26:06;;;;;;;0.00;0.00;;;13.50;99.90;;;;;;5117147;27;20481;-81
2022/07/06 04:28:32;;;;;;;0.08;0.03;;;13.50;99.90;;;;;;5099037;27;20504;-80
2022/07/06 04:30:57;;;;;;;0.00;0.00;;;13.50;99.90;;;;;;5117936;27;20545;-81
2022/07/06 04:33:23;;;;;;;0.00;0.00;;;13.50;99.90;;;;;;5117622;27;20108;-81
2022/07/06 04:35:49;;;;;;;0.00;0.00;;;13.50;99.90;;;;;;5117530;27;20043;-81
2022/07/06 04:38:15;;;;;;;0.00;0.00;;;13.60;99.90;;;;;;5099037;27;20062;-81
2022/07/06 04:40:40;;;;;;;0.00;0.00;;;13.60;99.90;;;;;;5134142;27;20482;-81
2022/07/06 04:43:06;;;;;;;0.10;0.10;;;13.60;99.90;;;;;;5099917;27;20047;-80
2022/07/06 04:45:35;;;;;;;0.00;0.00;;;13.60;99.90;;;;;;5135029;27;20046;-80
2022/07/06 04:48:00;;;;;;;0.22;0.08;;;13.60;99.90;;;;;;5116983;27;20047;-80
2022/07/06 04:50:27;;;;;;;0.00;0.00;;;13.60;99.90;;;;;;5114077;27;20475;-80
2022/07/06 04:52:54;;;;;;;0.00;0.00;;;13.60;99.90;;;;;;5099779;27;20047;-80
2022/07/06 04:55:20;;;;;;;0.00;0.00;;;13.70;99.90;;;;;;5116606;27;20081;-80
2022/07/06 04:57:46;;;;;;;0.00;0.00;;;13.70;99.90;;;;;;5133249;27;20143;-81
2022/07/06 05:00:15;;;;;;;0.00;0.00;;;13.70;99.90;;;;;;5135074;27;20039;-80
2022/07/06 05:02:40;;;;;;;0.00;0.00;;;14.00;99.90;;;;;;5133844;27;20095;-80
2022/07/06 05:05:06;;;;;;;0.00;0.00;;;13.80;99.90;;;;;;5133949;27;20452;-80
2022/07/06 05:07:33;;;;;;;0.00;0.00;;;13.90;99.90;;;;;;5133749;27;20421;-80
2022/07/06 05:10:00;;;;;;;0.20;0.20;;;14.00;99.90;;;;;;5116543;28;20115;-80
2022/07/06 05:12:26;;;;;;;0.30;0.30;;;14.00;99.90;;;;;;5117342;28;20046;-80
2022/07/06 05:14:53;;;;;;;0.00;0.00;;;14.10;99.90;;;;;;5099361;28;20486;-80
2022/07/06 05:17:21;;;;;;;0.00;0.00;;;14.20;99.90;;;;;;5098831;28;20055;-80
2022/07/06 05:19:47;;;;;;;0.00;0.00;;;14.20;99.90;;;;;;5099864;28;20107;-81
2022/07/06 05:22:12;;;;;;;0.00;0.00;;;14.30;99.90;;;;;;5100230;27;20058;-80
2022/07/06 05:24:38;;;;;;;0.00;0.00;;;14.40;99.90;;;;;;5103616;27;20039;-80
2022/07/06 05:27:05;;;;;;;0.00;0.00;;;14.40;99.90;;;;;;5103744;27;20372;-81
2022/07/06 05:29:31;;;;;;;0.00;0.00;;;14.40;99.90;;;;;;5103575;27;20088;-80
2022/07/06 05:31:56;;;;;;;0.00;0.00;;;14.40;99.90;;;;;;5120175;27;20058;-81
2022/07/06 05:34:23;;;;;;;0.00;0.00;;;14.50;99.90;;;;;;5119858;27;20058;-81
2022/07/06 05:36:48;;;;;;;0.20;0.00;;;14.50;99.90;;;;;;5137301;27;20055;-80
2022/07/06 05:39:21;;;;;;;0.00;0.00;;;14.50;99.90;;;;;;5120490;27;20051;-81
2022/07/06 05:41:51;;;;;;;0.00;0.00;;;14.60;99.90;;;;;;5137778;27;20047;-80
2022/07/06 05:44:16;;;;;;;0.00;0.00;;;14.70;99.90;;;;;;5120255;27;20062;-80
2022/07/06 05:46:43;;;;;;;0.00;0.00;;;14.70;99.90;;;;;;5120400;27;20059;-81
2022/07/06 05:51:56;;;;;;;0.00;0.00;;;15.30;99.90;;;;;;5119905;27;20047;-80
2022/07/06 05:54:21;;;;;;;0.00;0.00;;;15.80;99.90;;;;;;5120263;27;20058;-80
2022/07/06 05:56:48;;;;;;;0.00;0.00;;;15.90;99.90;;;;;;5120245;27;20049;-80
2022/07/06 05:59:13;;;;;;;0.00;0.00;;;15.90;99.90;;;;;;5120164;27;20135;-80
2022/07/06 06:01:39;;;;;;;0.00;0.00;;;15.80;99.90;;;;;;5103306;27;20460;-80
2022/07/06 06:04:05;;;;;;;0.00;0.00;;;15.70;99.90;;;;;;5119993;27;20108;-80
2022/07/06 06:06:31;;;;;;;0.00;0.00;;;15.70;99.90;;;;;;5102431;27;20047;-80
2022/07/06 06:08:58;;;;;;;0.00;0.00;;;15.60;99.90;;;;;;5102264;27;20055;-80
2022/07/06 06:11:24;;;;;;;0.32;0.15;;;15.60;99.90;;;;;;5119799;27;20412;-80
2022/07/06 06:13:50;;;;;;;0.00;0.00;;;15.50;99.90;;;;;;5119910;27;20088;-80
2022/07/06 06:16:15;;;;;;;0.00;0.00;;;15.50;99.90;;;;;;5119641;27;20397;-80
2022/07/06 06:18:41;;;;;;;0.00;0.00;;;15.50;99.90;;;;;;5119854;27;20047;-80
2022/07/06 06:21:07;;;;;;;0.00;0.00;;;15.50;99.90;;;;;;5102715;27;20120;-82
2022/07/06 06:23:33;;;;;;;0.00;0.00;;;15.60;99.90;;;;;;5102723;27;20036;-79
2022/07/06 06:26:04;;;;;;;0.00;0.00;;;15.70;99.90;;;;;;5119631;27;20083;-78
2022/07/06 06:28:30;;;;;;;0.00;0.00;;;15.80;99.90;;;;;;5102724;27;20183;-80
2022/07/06 06:30:56;;;;;;;0.00;0.00;;;15.80;99.90;;;;;;5102108;27;20142;-78
2022/07/06 06:33:22;;;;;;;0.00;0.00;;;15.90;99.90;;;;;;5118337;28;20054;-78
2022/07/06 06:36:07;;;;;;;0.00;0.00;;;15.90;99.90;;;;;;5119748;27;20039;-80
2022/07/06 06:38:33;;;;;;;0.00;0.00;;;15.90;99.90;;;;;;5118307;27;20047;-78
2022/07/06 06:41:01;;;;;;;0.00;0.00;;;15.90;99.90;;;;;;5101951;27;20054;-80
2022/07/06 06:43:27;;;;;;;0.00;0.00;;;15.90;99.90;;;;;;5119166;27;20058;-78
2022/07/06 06:45:53;;;;;;;0.00;0.00;;;15.90;99.90;;;;;;5119302;27;20046;-78
2022/07/06 06:48:19;;;;;;;0.00;0.00;;;15.90;99.90;;;;;;5102228;27;20050;-78
2022/07/06 06:50:45;;;;;;;0.00;0.00;;;16.00;99.90;;;;;;5101902;27;20084;-78
2022/07/06 06:53:11;;;;;;;0.00;0.00;;;16.10;99.90;;;;;;5119071;27;20092;-79
2022/07/06 06:55:37;;;;;;;0.10;0.10;;;16.10;99.90;;;;;;5119119;27;20390;-79
2022/07/06 06:58:08;;;;;;;0.00;0.00;;;16.10;99.90;;;;;;5101962;27;20074;-78
2022/07/06 07:00:34;;;;;;;0.00;0.00;;;16.10;99.90;;;;;;5101986;27;20066;-79
2022/07/06 07:03:00;;;;;;;0.00;0.00;;;16.20;99.90;;;;;;5119255;27;20117;-78
2022/07/06 07:05:26;;;;;;;0.00;0.00;;;16.20;99.90;;;;;;5118672;27;20051;-78
2022/07/06 07:07:54;;;;;;;0.00;0.00;;;16.20;99.90;;;;;;5118413;27;20051;-78
2022/07/06 07:10:23;;;;;;;0.00;0.00;;;16.20;99.90;;;;;;5118629;27;20122;-80
2022/07/06 07:12:48;;;;;;;0.00;0.00;;;16.30;99.90;;;;;;5118870;27;20185;-79
2022/07/06 07:15:15;;;;;;;0.00;0.00;;;16.40;99.90;;;;;;5101450;27;20047;-79
2022/07/06 07:17:41;;;;;;;0.00;0.00;;;16.40;99.90;;;;;;5118848;27;20388;-79
2022/07/06 07:20:09;;;;;;;3.35;0.55;;;16.50;99.90;;;;;;5118683;27;20058;-79
2022/07/06 07:23:14;;;;;;;0.00;0.00;;;16.50;99.90;;;;;;5082342;28;20039;-79
2022/07/06 07:25:56;;;;;;;0.00;0.00;;;16.50;99.90;;;;;;5076682;28;20052;-79
2022/07/06 07:28:22;;;;;;;0.00;0.00;;;16.50;99.90;;;;;;5076691;28;20455;-79
2022/07/06 07:30:48;;;;;;;0.00;0.00;;;16.50;99.90;;;;;;5076335;28;20051;-79
2022/07/06 07:33:13;;;;;;;0.00;0.00;;;16.60;99.90;;;;;;5076339;28;20036;-79
2022/07/06 07:35:39;;;;;;;0.00;0.00;;;16.70;99.90;;;;;;5076548;28;20131;-78
2022/07/06 07:38:05;;;;;;;0.00;0.00;;;16.90;99.90;;;;;;5076665;28;20056;-79
2022/07/06 07:40:31;;;;;;;0.10;0.10;;;17.00;99.90;;;;;;5076376;28;20040;-79
2022/07/06 07:42:57;;;;;;;0.00;0.00;;;17.10;99.90;;;;;;5076383;28;20044;-78
2022/07/06 07:45:23;;;;;;;0.00;0.00;;;17.10;99.90;;;;;;5076127;28;20436;-79
2022/07/06 07:47:48;;;;;;;0.00;0.00;;;17.10;99.90;;;;;;5076425;28;20060;-79
2022/07/06 07:50:14;;;;;;;0.00;0.00;;;17.00;99.90;;;;;;5110044;28;20036;-79
2022/07/06 07:52:41;;;;;;;0.00;0.00;;;17.00;99.90;;;;;;5075982;28;20051;-78
2022/07/06 07:55:25;;;;;;;0.00;0.00;;;16.90;99.90;;;;;;5093004;28;20070;-79
2022/07/06 07:58:00;;;;;;;;;;;16.80;99.90;;;;;;5109009;28;20048;-79
2022/07/06 08:00:28;;;;;;;0.43;0.25;;;16.70;99.90;;;;;;5076113;28;19927;-79
2022/07/06 08:02:59;;;;;;;0.00;0.00;;;16.60;99.90;;;;;;5076083;28;20475;-78
2022/07/06 08:05:25;;;;;;;0.00;0.00;;;16.60;99.90;;;;;;5076177;28;20056;-79
2022/07/06 08:07:52;;;;;;;0.00;0.00;;;16.60;99.90;;;;;;5075443;28;20056;-78
2022/07/06 08:10:19;;;;;;;0.00;0.00;;;16.70;99.90;;;;;;5075493;28;20044;-78
2022/07/06 08:12:44;;;;;;;0.00;0.00;;;16.80;99.90;;;;;;5088634;27;20053;-79
2022/07/06 08:15:10;;;;;;;0.00;0.00;;;16.90;99.90;;;;;;5100800;27;20137;-78
2022/07/06 08:17:36;;;;;;;0.00;0.00;;;17.10;99.90;;;;;;5117307;27;20546;-78
2022/07/06 08:20:02;;;;;;;0.00;0.00;;;17.20;99.90;;;;;;5116798;27;20043;-78
2022/07/06 08:22:29;;;;;;;0.00;0.00;;;17.40;99.90;;;;;;5117322;27;20046;-81
2022/07/06 08:24:55;;;;;;;0.00;0.00;;;17.70;99.90;;;;;;5100228;27;20046;-79
2022/07/06 08:27:21;;;;;;;0.00;0.00;;;17.80;99.90;;;;;;5117008;27;20046;-78
2022/07/06 08:29:48;;;;;;;0.00;0.00;;;17.80;99.90;;;;;;5100160;27;20043;-78
2022/07/06 08:32:17;;;;;;;0.00;0.00;;;17.90;99.90;;;;;;5099469;27;20138;-78
2022/07/06 08:34:44;;;;;;;0.00;0.00;;;17.90;99.90;;;;;;5132744;27;20047;-78
2022/07/06 08:37:09;;;;;;;0.00;0.00;;;18.00;99.90;;;;;;5099819;27;20483;-78
2022/07/06 08:39:36;;;;;;;0.00;0.00;;;18.00;99.90;;;;;;5116498;27;20058;-78
2022/07/06 08:42:04;;;;;;;0.00;0.00;;;18.10;99.90;;;;;;5116573;27;20509;-79
2022/07/06 08:44:30;;;;;;;0.00;0.00;;;18.30;99.90;;;;;;5117007;27;20050;-78
2022/07/06 08:46:58;;;;;;;0.00;0.00;;;18.40;99.90;;;;;;5099589;27;20047;-78
2022/07/06 08:49:28;;;;;;;0.00;0.00;;;18.70;99.90;;;;;;5117375;27;20390;-78
2022/07/06 08:52:02;;;;;;;0.00;0.00;;;18.80;99.90;;;;;;5117086;27;20371;-78
2022/07/06 08:54:28;;;;;;;0.00;0.00;;;18.80;99.90;;;;;;5116040;28;20491;-78
2022/07/06 08:56:54;;;;;;;0.00;0.00;;;18.70;99.90;;;;;;5115854;28;20147;-78
2022/07/06 08:59:20;;;;;;;0.00;0.00;;;18.50;99.90;;;;;;5099670;28;20141;-78
2022/07/06 09:01:47;;;;;;;0.00;0.00;;;18.40;99.90;;;;;;5116969;27;20104;-78
2022/07/06 09:04:15;;;;;;;0.00;0.00;;;18.40;99.90;;;;;;5099952;28;20047;-78
2022/07/06 09:06:45;;;;;;;0.00;0.00;;;18.50;99.90;;;;;;5099517;27;20059;-78
2022/07/06 09:09:16;;;;;;;0.70;0.00;;;18.60;99.90;;;;;;5116195;27;20083;-78
2022/07/06 09:11:42;;;;;;;0.00;0.00;;;18.70;99.90;;;;;;5116695;28;20422;-78
2022/07/06 09:14:09;;;;;;;0.00;0.00;;;18.70;99.90;;;;;;5116844;28;20057;-78
2022/07/06 09:16:35;;;;;;;0.00;0.00;;;18.70;99.90;;;;;;5099394;28;20067;-78
2022/07/06 09:19:16;;;;;;;0.00;0.00;;;18.70;99.90;;;;;;5133774;28;20054;-78
2022/07/06 09:21:42;;;;;;;0.00;0.00;;;18.80;99.90;;;;;;5116333;28;20043;-78
2022/07/06 09:24:12;;;;;;;0.00;0.00;;;19.00;99.90;;;;;;5099577;28;20043;-78
2022/07/06 09:26:39;;;;;;;0.00;0.00;;;19.20;99.90;;;;;;5115994;28;20501;-78
2022/07/06 09:29:05;;;;;;;0.00;0.00;;;19.30;99.90;;;;;;5116447;28;20050;-78
2022/07/06 09:31:33;;;;;;;0.00;0.00;;;19.50;99.90;;;;;;5116409;28;20051;-78
2022/07/06 09:34:12;;;;;;;0.00;0.00;;;19.60;99.90;;;;;;5099276;28;20054;-78
2022/07/06 09:36:45;;;;;;;0.00;0.00;;;19.80;99.90;;;;;;5116502;28;20050;-78
2022/07/06 09:39:27;;;;;;;0.00;0.00;;;20.10;99.90;;;;;;5116453;28;20050;-78
2022/07/06 09:42:00;;;;;;;0.00;0.00;;;20.20;98.80;;;;;;5116306;28;20054;-78
2022/07/06 09:44:28;;;;;;;0.00;0.00;;;20.20;96.90;;;;;;5116355;28;20053;-78
2022/07/06 09:46:59;;;;;;;1.27;0.52;;;20.30;99.90;;;;;;5099336;28;20457;-78
2022/07/06 09:49:26;;;;;;;0.00;0.00;;;20.20;98.20;;;;;;5116096;28;20039;-78
2022/07/06 09:51:57;;;;;;;0.00;0.00;;;20.30;98.90;;;;;;5116865;28;20126;-78
2022/07/06 09:54:23;;;;;;;0.00;0.00;;;20.40;99.20;;;;;;5116511;28;20058;-78
2022/07/06 09:57:00;;;;;;;0.00;0.00;;;20.50;98.10;;;;;;5115957;28;20035;-78
2022/07/06 09:59:35;;;;;;;0.00;0.00;;;20.30;97.30;;;;;;5116353;28;20050;-78
2022/07/06 10:02:06;;;;;;;0.00;0.00;;;20.10;97.60;;;;;;5116155;28;20108;-78
2022/07/06 10:04:33;;;;;;;0.00;0.00;;;20.00;99.10;;;;;;5099766;28;20039;-78
2022/07/06 10:07:03;;;;;;;0.00;0.00;;;20.10;99.90;;;;;;5115540;28;20399;-78
2022/07/06 10:09:30;;;;;;;0.00;0.00;;;20.30;98.50;;;;;;5118887;27;20047;-78
2022/07/06 10:11:59;;;;;;;0.00;0.00;;;20.40;98.90;;;;;;5119885;27;20051;-78
2022/07/06 10:14:30;;;;;;;0.20;0.00;;;20.40;97.20;;;;;;5119450;27;20134;-78
2022/07/06 10:17:05;;;;;;;0.00;0.00;;;20.30;96.20;;;;;;5120044;27;20042;-79
2022/07/06 10:19:31;;;;;;;0.00;0.00;;;20.30;94.70;;;;;;5102479;27;20043;-78
2022/07/06 10:22:02;;;;;;;0.00;0.00;;;20.40;95.10;;;;;;5119441;27;20571;-78
2022/07/06 10:24:29;;;;;;;0.00;0.00;;;20.60;96.50;;;;;;5102305;27;20040;-78
2022/07/06 10:26:58;;;;;;;0.00;0.00;;;20.70;94.50;;;;;;5119812;27;20083;-78
2022/07/06 10:29:25;;;;;;;0.00;0.00;;;20.60;94.60;;;;;;5119582;27;20043;-78
2022/07/06 10:31:52;;;;;;;0.00;0.00;;;20.60;96.40;;;;;;5102633;27;20182;-78
2022/07/06 10:34:20;;;;;;;0.00;0.00;;;20.50;95.70;;;;;;5101997;27;20418;-78
2022/07/06 10:36:50;;;;;;;0.00;0.00;;;20.40;95.20;;;;;;5119303;27;20035;-78
2022/07/06 10:43:00;;;;;;;0.00;0.00;;;20.30;95.60;;;;;;5119303;27;20046;-78
2022/07/06 10:45:28;;;;;;;0.00;0.00;;;20.60;96.60;;;;;;5118994;27;20066;-79
2022/07/06 10:48:12;;;;;;;0.00;0.00;;;20.90;94.80;;;;;;5119306;27;20039;-79
2022/07/06 10:50:39;;;;;;;0.00;0.00;;;21.20;94.70;;;;;;5102035;27;20046;-79
2022/07/06 10:53:22;;;;;;;0.00;0.00;;;21.30;93.50;;;;;;5136836;27;20059;-79
2022/07/06 10:55:50;;;;;;;0.00;0.00;;;21.60;94.50;;;;;;5101668;27;20055;-78
2022/07/06 10:58:53;;;;;;;0.00;0.00;;;21.70;93.60;;;;;;5101414;27;20063;-78
2022/07/06 11:01:20;;;;;;;0.00;0.00;;;21.80;94.00;;;;;;5101054;27;20055;-78
2022/07/06 11:03:56;;;;;;;0.10;0.10;;;21.90;93.80;;;;;;5118908;27;20039;-78
2022/07/06 11:06:24;;;;;;;0.00;0.00;;;22.00;92.80;;;;;;5101672;27;20099;-78
2022/07/06 11:08:56;;;;;;;0.00;0.00;;;22.10;92.90;;;;;;5114353;28;20063;-79
2022/07/06 11:11:48;;;;;;;0.00;0.00;;;22.40;91.70;;;;;;5115069;28;20415;-79
2022/07/06 11:14:23;;;;;;;0.00;0.00;;;22.50;91.90;;;;;;5082840;28;20055;-79
2022/07/06 11:16:49;;;;;;;0.00;0.00;;;22.50;91.70;;;;;;5114897;28;20073;-78
2022/07/06 11:19:18;;;;;;;0.00;0.00;;;22.60;92.20;;;;;;5114546;28;20097;-78
2022/07/06 11:21:51;;;;;;;0.00;0.00;;;22.70;91.20;;;;;;5097546;28;20051;-79
2022/07/06 11:24:28;;;;;;;0.00;0.00;;;22.50;89.70;;;;;;5114999;28;20048;-79
2022/07/06 11:27:01;;;;;;;0.00;0.00;;;22.20;91.10;;;;;;5111986;28;20518;-79
2022/07/06 11:29:28;;;;;;;0.00;0.00;;;21.90;90.10;;;;;;5114068;28;20081;-79
2022/07/06 11:31:56;;;;;;;0.00;0.00;;;21.50;91.00;;;;;;5097452;28;20143;-79
2022/07/06 11:34:43;;;;;;;0.00;0.00;;;21.40;91.80;;;;;;5114740;28;20081;-78
2022/07/06 11:37:17;;;;;;;0.00;0.00;;;21.50;91.70;;;;;;5114299;28;20044;-79
2022/07/06 11:39:44;;;;;;;0.00;0.00;;;21.70;92.60;;;;;;5114272;28;20552;-78
2022/07/06 11:42:17;;;;;;;1.55;0.40;;;21.90;91.80;;;;;;5114570;28;20043;-78
2022/07/06 11:44:43;;;;;;;0.00;0.00;;;22.30;90.70;;;;;;5097092;28;20059;-78
2022/07/06 11:47:11;;;;;;;0.00;0.00;;;22.80;92.60;;;;;;5114223;28;20491;-78
2022/07/06 11:49:38;;;;;;;0.00;0.00;;;23.00;89.10;;;;;;5097449;28;20044;-78
2022/07/06 11:52:09;;;;;;;0.98;0.20;;;22.90;90.80;;;;;;5096218;28;20160;-79
2022/07/06 11:54:35;;;;;;;0.00;0.00;;;22.50;87.90;;;;;;5113714;28;20048;-79
2022/07/06 11:57:15;;;;;;;0.00;0.00;;;22.20;87.60;;;;;;5114483;28;20062;-78
2022/07/06 11:59:46;;;;;;;0.10;0.00;;;21.80;89.70;;;;;;5114410;28;20112;-79
2022/07/06 12:02:15;;;;;;;0.00;0.00;;;21.50;90.40;;;;;;5114280;28;20051;-78
2022/07/06 12:04:46;;;;;;;0.00;0.00;;;21.60;90.90;;;;;;5096770;28;20501;-79
2022/07/06 12:07:15;;;;;;;0.00;0.00;;;21.90;91.80;;;;;;5097036;28;20070;-78
2022/07/06 12:09:43;;;;;;;0.00;0.00;;;22.20;91.00;;;;;;5096754;28;20051;-79
2022/07/06 12:12:10;;;;;;;0.10;0.10;;;22.30;91.60;;;;;;5113484;28;20051;-78
2022/07/06 12:14:38;;;;;;;0.32;0.10;;;22.10;91.50;;;;;;5113884;28;20048;-79
2022/07/06 12:17:08;;;;;;;0.00;0.00;;;21.90;91.10;;;;;;5096622;28;20082;-78
2022/07/06 12:19:38;;;;;;;0.00;0.00;;;21.70;91.10;;;;;;5096977;28;20636;-79
2022/07/06 12:22:05;;;;;;;0.00;0.00;;;21.60;90.80;;;;;;5113661;28;20491;-79
2022/07/06 12:24:47;;;;;;;0.00;0.00;;;21.40;90.40;;;;;;5096866;28;20044;-79
2022/07/06 12:27:13;;;;;;;0.00;0.00;;;21.40;91.40;;;;;;5113278;28;20066;-78
2022/07/06 12:29:39;;;;;;;0.00;0.00;;;21.30;91.70;;;;;;5113632;28;20078;-78
2022/07/06 12:32:22;;;;;;;0.00;0.00;;;21.30;91.70;;;;;;5095479;28;20434;-78
2022/07/06 12:35:01;;;;;;;0.00;0.00;;;21.60;92.50;;;;;;5113749;28;20044;-78
2022/07/06 12:37:27;;;;;;;0.00;0.00;;;21.60;92.60;;;;;;5112390;27;20402;-78
2022/07/06 12:39:52;;;;;;;0.00;0.00;;;21.40;91.70;;;;;;5113556;28;20047;-79
2022/07/06 12:42:19;;;;;;;0.00;0.00;;;21.20;90.90;;;;;;5113289;28;20043;-79
2022/07/06 12:44:52;;;;;;;0.00;0.00;;;21.20;92.10;;;;;;5097189;28;20047;-79
2022/07/06 12:47:23;;;;;;;2.30;0.20;;;21.20;92.00;;;;;;5113489;28;20035;-79
2022/07/06 12:50:08;;;;;;;1.85;0.57;;;21.30;93.60;;;;;;5096273;28;20035;-79
2022/07/06 12:52:36;;;;;;;0.00;0.00;;;21.30;91.70;;;;;;5096107;28;20054;-79
2022/07/06 12:55:15;;;;;;;0.00;0.00;;;21.60;93.30;;;;;;5097132;28;20115;-79
2022/07/06 12:57:51;;;;;;;0.00;0.00;;;21.70;92.00;;;;;;5079856;28;20043;-79
2022/07/06 13:00:19;;;;;;;0.00;0.00;;;21.50;90.90;;;;;;5096691;28;20048;-79